Latest Coastal Weather Observations for Newcastle Nobbys

IDN60701

Issued at 6:31 pm EST Sunday 24 September 2017 (issued every 10 minutes, with the page automatically refreshed every 10 minutes)

About coastal observations | Map of coastal stations | Coastal observations for NSW | Marine services | Other Formats
Station Details ID: 061055 Name: NEWCASTLE NOBBYS SIGNAL STATION AWS Lat: -32.92 Lon: 151.80 Height: 33.0 m
Data from the previous 72 hours. | See also: Recent months at Newcastle Nobbys
Date/Time
EST
Temp
°C
Wind Pressure Rain since
9am
mm
Weather Cloud Vis
km
Sea
Height
m
Swell
Dir  Spd
kts
Gust
kts
hPa Trend Height
m
Period
s
Dir
24/06:30pm 21.2 SSE 3 4 - - 0.0 - - - - - - -
24/06:00pm 21.4 SE 3 4 - - 0.0 - - - - - - -
24/05:30pm 21.7 NE 11 16 - - 0.0 - - - - - - -
24/05:00pm 21.8 NE 12 17 - - 0.0 - - - - - - -
24/04:30pm 20.7 NE 7 12 - - 0.0 - - - - - - -
24/04:00pm 21.3 NE 6 10 - - 0.0 - - - - - - -
24/03:30pm 21.4 ENE 8 10 - - 0.0 - - - - - - -
24/03:00pm 22.0 ENE 6 9 - - 0.0 - - - - - - -
24/02:30pm 21.7 E 5 6 - - 0.0 - - - - - - -
24/02:00pm 21.5 SSE 9 10 - - 0.0 - - - - - - -
24/01:30pm 21.3 SSE 10 12 - - 0.0 - - - - - - -
24/01:00pm 21.3 SSE 9 12 - - 0.0 - - - - - - -
24/12:30pm 21.7 SE 10 13 - - 0.0 - - - - - - -
24/12:00pm 24.4 SE 8 14 - - 0.0 - - - - - - -
24/11:53am 25.7 W 13 22 - - 0.0 - - - - - - -
24/11:30am 32.4 WNW 19 30 - - 0.0 - - - - - - -
24/11:08am 32.1 WNW 21 33 - - 0.0 - - - - - - -
24/11:00am 32.3 WNW 19 26 - - 0.0 - - - - - - -
24/10:30am 32.0 WNW 21 32 - - 0.0 - - - - - - -
24/10:00am 32.1 WNW 23 34 - - 0.0 - - - - - - -
24/09:30am 31.4 NW 21 33 - - 0.0 - - - - - - -
24/09:00am 30.8 NW 25 39 - - 0.0 - - - - - - -
24/08:34am 30.4 NW 22 36 - - 0.0 - - - - - - -
24/08:30am 30.4 NW 21 31 - - 0.0 - - - - - - -
24/08:00am 29.8 NW 18 31 - - 0.0 - - - - - - -
24/07:48am 28.9 NNW 15 26 - - 0.0 - - - - - - -
24/07:30am 29.2 N 6 11 - - 0.0 - - - - - - -
24/07:00am 28.1 N 8 14 - - 0.0 - - - - - - -
24/06:30am 28.1 NW 12 17 - - 0.0 - - - - - - -
24/06:00am 27.4 NW 9 12 - - 0.0 - - - - - - -
24/05:30am 26.7 NNW 6 8 - - 0.0 - - - - - - -
24/05:00am 26.3 N 10 12 - - 0.0 - - - - - - -
24/04:30am 25.9 NNW 8 9 - - 0.0 - - - - - - -
24/04:00am 26.4 NW 13 18 - - 0.0 - - - - - - -
24/03:30am 23.0 NNW 9 11 - - 0.0 - - - - - - -
24/03:00am 23.2 NNW 8 11 - - 0.0 - - - - - - -
24/02:30am 22.6 NNW 9 11 - - 0.0 - - - - - - -
24/02:00am 23.1 NNW 9 10 - - 0.0 - - - - - - -
24/01:30am 23.6 N 10 16 - - 0.0 - - - - - - -
24/01:00am 23.7 NNW 6 10 - - 0.0 - - - - - - -
24/12:30am 25.5 NW 4 7 - - 0.0 - - - - - - -
24/12:00am 24.6 N 7 8 - - 0.0 - - - - - - -
 
Date/Time
EST
Temp
°C
Wind Pressure Rain since
9am
mm
Weather Cloud Vis
km
Sea
Height
m
Swell
Dir  Spd
kts
Gust
kts
hPa Trend Height
m
Period
s
Dir
23/11:30pm 23.9 NNW 9 11 - - 0.0 - - - - - - -
23/11:00pm 25.4 N 8 9 - - 0.0 - - - - - - -
23/10:30pm 25.6 N 10 11 - - 0.0 - - - - - - -
23/10:00pm 25.4 NNW 8 11 - - 0.0 - - - - - - -
23/09:30pm 24.3 NNW 9 11 - - 0.0 - - - - - - -
23/09:00pm 26.3 N 12 13 - - 0.0 - - - - - - -
23/08:30pm 25.6 N 14 15 - - 0.0 - - - - - - -
23/08:00pm 25.4 N 14 16 - - 0.0 - - - - - - -
23/07:30pm 25.5 N 9 11 - - 0.0 - - - - - - -
23/07:00pm 23.8 N 8 13 - - 0.0 - - - - - - -
23/06:30pm 25.4 NNE 8 11 - - 0.0 - - - - - - -
23/06:00pm 25.7 NE 10 13 - - 0.0 - - - - - - -
23/05:30pm 27.5 NE 11 16 - - 0.0 - - - - - - -
23/05:00pm 28.3 NE 8 12 - - 0.0 - - - - - - -
23/04:30pm 26.1 ENE 5 9 - - 0.0 - - - - - - -
23/04:00pm 27.4 NNE 6 12 - - 0.0 - - - - - - -
23/03:30pm 25.9 NNE 5 10 - - 0.0 - - - - - - -
23/03:00pm 24.7 NE 6 9 - - 0.0 - - - - - - -
23/02:30pm 22.4 NNE 7 9 - - 0.0 - - - - - - -
23/02:00pm 22.6 ENE 8 10 - - 0.0 - - - - - - -
23/01:30pm 22.1 ENE 8 10 - - 0.0 - - - - - - -
23/01:00pm 22.1 NNE 4 6 - - 0.0 - - - - - - -
23/12:30pm 22.8 NE 5 7 - - 0.0 - - - - - - -
23/12:00pm 24.5 N 10 12 - - 0.0 - - - - - - -
23/11:30am 24.1 N 9 10 - - 0.0 - - - - - - -
23/11:00am 25.4 N 8 9 - - 0.0 - - - - - - -
23/10:30am 25.4 NNW 6 8 - - 0.0 - - - - - - -
23/10:00am 27.1 NW 6 11 - - 0.0 - - - - - - -
23/09:30am 24.8 NW 12 15 - - 0.0 - - - - - - -
23/09:00am 23.4 NW 11 14 - - 0.0 - - - - - - -
23/08:30am 21.7 NW 12 15 - - 0.0 - - - - - - -
23/08:00am 20.4 NNW 8 12 - - 0.0 - - - - - - -
23/07:30am 19.4 NW 13 16 - - 0.0 - - - - - - -
23/07:00am 17.1 NW 7 9 - - 0.0 - - - - - - -
23/06:30am 15.6 NNW 9 10 - - 0.0 - - - - - - -
23/06:00am 15.1 N 10 11 - - 0.0 - - - - - - -
23/05:30am 15.8 NNW 12 14 - - 0.0 - - - - - - -
23/05:00am 17.2 NW 7 10 - - 0.0 - - - - - - -
23/04:30am 17.7 NW 10 12 - - 0.0 - - - - - - -
23/04:00am 17.2 NW 9 12 - - 0.0 - - - - - - -
23/03:30am 17.5 NW 9 11 - - 0.0 - - - - - - -
23/03:00am 16.2 NW 6 7 - - 0.0 - - - - - - -
23/02:30am 16.5 NNW 5 7 - - 0.0 - - - - - - -
23/02:00am 16.9 NNW 4 5 - - 0.0 - - - - - - -
23/01:30am 17.6 NNW 7 10 - - 0.0 - - - - - - -
23/01:00am 18.1 NNW 8 9 - - 0.0 - - - - - - -
23/12:30am 17.5 NW 5 6 - - 0.0 - - - - - - -
23/12:00am 18.1 N 1 3 - - 0.0 - - - - - - -
 
Date/Time
EST
Temp
°C
Wind Pressure Rain since
9am
mm
Weather Cloud Vis
km
Sea
Height
m
Swell
Dir  Spd
kts
Gust
kts
hPa Trend Height
m
Period
s
Dir
22/11:30pm 18.7 NW 6 8 - - 0.0 - - - - - - -
22/11:00pm 18.8 NW 4 7 - - 0.0 - - - - - - -
22/10:30pm 18.9 NW 6 8 - - 0.0 - - - - - - -
22/10:00pm 19.9 NNW 6 7 - - 0.0 - - - - - - -
22/09:30pm 20.4 NW 1 2 - - 0.0 - - - - - - -
22/09:00pm 20.3 NNE 7 9 - - 0.0 - - - - - - -
22/08:30pm 20.3 NNE 7 8 - - 0.0 - - - - - - -
22/08:00pm 20.7 N 9 11 - - 0.0 - - - - - - -
22/07:30pm 20.4 NNE 4 7 - - 0.0 - - - - - - -
22/07:00pm 20.8 NE 8 12 - - 0.0 - - - - - - -
22/06:30pm 21.2 NE 11 15 - - 0.0 - - - - - - -
22/06:00pm 21.6 NE 12 16 - - 0.0 - - - - - - -
22/05:30pm 21.9 NE 15 21 - - 0.0 - - - - - - -
22/05:00pm 22.2 NE 14 18 - - 0.0 - - - - - - -
22/04:30pm 22.5 ENE 14 18 - - 0.0 - - - - - - -
22/04:00pm 22.9 ENE 12 17 - - 0.0 - - - - - - -
22/03:30pm 22.1 ENE 11 16 - - 0.0 - - - - - - -
22/03:07pm 24.2 N 10 15 - - 0.0 - - - - - - -
22/03:00pm 29.3 NNW 12 16 - - 0.0 - - - - - - -
22/02:30pm 29.5 NNW 12 18 - - 0.0 - - - - - - -
22/02:00pm 29.1 NNW 12 20 - - 0.0 - - - - - - -
22/01:30pm 29.0 NNW 14 17 - - 0.0 - - - - - - -
22/01:00pm 29.0 NW 11 17 - - 0.0 - - - - - - -
22/12:30pm 28.2 NW 13 17 - - 0.0 - - - - - - -
22/12:00pm 27.6 NNW 14 18 - - 0.0 - - - - - - -
22/11:30am 27.0 NNW 13 18 - - 0.0 - - - - - - -
22/11:00am 25.9 NNW 11 15 - - 0.0 - - - - - - -
22/10:30am 24.6 NW 9 13 - - 0.0 - - - - - - -
22/10:00am 22.7 NNW 11 14 - - 0.0 - - - - - - -
22/09:30am 21.6 NW 11 14 - - 0.0 - - - - - - -
22/09:00am 20.6 NW 12 16 - - 0.0 - - - - - - -
22/08:30am 18.9 NW 11 14 - - 0.0 - - - - - - -
22/08:00am 16.7 NW 13 18 - - 0.0 - - - - - - -
22/07:30am 16.2 NW 13 16 - - 0.0 - - - - - - -
22/07:00am 14.7 NW 11 14 - - 0.0 - - - - - - -
22/06:30am 14.1 NW 9 12 - - 0.0 - - - - - - -
22/06:00am 13.4 NW 7 9 - - 0.0 - - - - - - -
22/05:30am 13.9 NW 6 7 - - 0.0 - - - - - - -
22/05:00am 13.7 NW 8 10 - - 0.0 - - - - - - -
22/04:30am 13.9 NW 10 11 - - 0.0 - - - - - - -
22/04:00am 13.6 NW 5 7 - - 0.0 - - - - - - -
22/03:30am 13.8 NW 3 5 - - 0.0 - - - - - - -
22/03:00am 14.7 NNW 8 9 - - 0.0 - - - - - - -
22/02:30am 14.8 NNW 6 7 - - 0.0 - - - - - - -
22/02:00am 15.1 NW 4 6 - - 0.0 - - - - - - -
22/01:30am 15.6 NW 4 5 - - 0.0 - - - - - - -
22/01:00am 15.9 NW 5 6 - - 0.0 - - - - - - -
22/12:30am 17.1 N 6 7 - - 0.0 - - - - - - -
22/12:00am 18.0 N 8 10 - - 0.0 - - - - - - -
 
Date/Time
EST
Temp
°C
Wind Pressure Rain since
9am
mm
Weather Cloud Vis
km
Sea
Height
m
Swell
Dir  Spd
kts
Gust
kts
hPa Trend Height
m
Period
s
Dir
21/11:30pm 17.6 N 4 5 - - 0.0 - - - - - - -
21/11:00pm 17.0 NNW 3 4 - - 0.0 - - - - - - -
21/10:30pm 17.1 NNW 5 6 - - 0.0 - - - - - - -
21/10:00pm 18.0 NNW 6 8 - - 0.0 - - - - - - -
21/09:30pm 18.3 N 7 9 - - 0.0 - - - - - - -
21/09:00pm 18.4 N 8 10 - - 0.0 - - - - - - -
21/08:30pm 18.4 N 5 8 - - 0.0 - - - - - - -
21/08:00pm 18.7 N 5 7 - - 0.0 - - - - - - -
21/07:30pm 19.1 NNE 5 7 - - 0.0 - - - - - - -
21/07:00pm 19.2 NE 6 9 - - 0.0 - - - - - - -

Other Formats:

Comma delimited format used in spreadsheet applications
http://www.bom.gov.au/fwo/IDN60701/IDN60701.94774.axf

JavaScript Object Notation format (JSON) in row-major order
http://www.bom.gov.au/fwo/IDN60701/IDN60701.94774.json